Time,TemperatureF,DewpointF,PressureIn,WindDirection,WindDirectionDegrees,WindSpeedMPH,WindSpeedGustMPH,Humidity,HourlyPrecipIn,Conditions,Clouds,dailyrainin,SoftwareType,DateUTC
2015-09-01 00:06:00,67.0,62.3,29.93,WNW,297,1.0,2.0,85,0.00,,---,0.00,VWS V15.00,2015-09-01 04:06:00,
2015-09-01 00:21:00,66.5,61.5,29.93,WNW,297,1.0,2.0,84,0.00,,---,0.00,VWS V15.00,2015-09-01 04:21:00,
2015-09-01 00:36:00,66.5,61.2,29.94,WNW,297,1.0,2.0,83,0.00,,---,0.00,VWS V15.00,2015-09-01 04:36:00,
2015-09-01 00:51:00,66.4,61.4,29.94,WNW,297,1.0,2.0,84,0.00,,---,0.00,VWS V15.00,2015-09-01 04:51:00,
2015-09-01 01:06:00,66.3,61.0,29.94,WNW,297,1.0,2.0,83,0.00,,---,0.00,VWS V15.00,2015-09-01 05:06:00,
2015-09-01 01:21:00,66.2,60.9,29.94,WNW,297,0.0,1.0,83,0.00,,---,0.00,VWS V15.00,2015-09-01 05:21:00,
2015-09-01 01:36:00,66.0,61.0,29.94,WNW,297,1.0,1.0,84,0.00,,---,0.00,VWS V15.00,2015-09-01 05:36:00,
2015-09-01 01:52:00,65.5,60.2,29.94,WNW,297,0.0,1.0,83,0.00,,---,0.00,VWS V15.00,2015-09-01 05:52:00,
2015-09-01 02:06:00,65.0,60.4,29.95,WNW,297,0.0,1.0,85,0.00,,---,0.00,VWS V15.00,2015-09-01 06:06:00,
2015-09-01 02:22:00,64.4,60.5,29.94,WNW,297,1.0,2.0,87,0.00,,---,0.00,VWS V15.00,2015-09-01 06:22:00,
2015-09-01 02:36:00,64.1,60.8,29.95,WNW,297,1.0,2.0,89,0.00,,---,0.00,VWS V15.00,2015-09-01 06:36:00,
2015-09-01 02:52:00,63.6,60.0,29.95,WNW,297,0.0,2.0,88,0.00,,---,0.00,VWS V15.00,2015-09-01 06:52:00,
2015-09-01 03:06:00,63.1,59.8,29.95,WNW,298,2.0,2.0,89,0.00,,---,0.00,VWS V15.00,2015-09-01 07:06:00,
2015-09-01 03:22:00,63.4,60.4,29.95,WNW,297,1.0,3.0,90,0.00,,---,0.00,VWS V15.00,2015-09-01 07:22:00,
2015-09-01 03:36:00,63.6,60.6,29.96,WNW,292,1.0,3.0,90,0.00,,---,0.00,VWS V15.00,2015-09-01 07:36:00,
2015-09-01 03:52:00,64.1,61.4,29.97,WNW,292,0.0,1.0,91,0.00,,---,0.00,VWS V15.00,2015-09-01 07:52:00,
2015-09-01 04:06:00,64.7,61.7,29.97,WNW,292,1.0,2.0,90,0.00,,---,0.00,VWS V15.00,2015-09-01 08:06:00,
2015-09-01 04:22:00,64.1,61.1,29.98,WNW,292,1.0,1.0,90,0.00,,---,0.00,VWS V15.00,2015-09-01 08:22:00,
2015-09-01 04:36:00,63.5,60.8,29.98,WNW,292,1.0,1.0,91,0.00,,---,0.00,VWS V15.00,2015-09-01 08:36:00,
2015-09-01 04:52:00,63.2,60.5,29.99,WNW,292,0.0,1.0,91,0.00,,---,0.00,VWS V15.00,2015-09-01 08:52:00,
2015-09-01 05:06:00,63.0,60.6,29.99,WNW,292,1.0,1.0,92,0.00,,---,0.00,VWS V15.00,2015-09-01 09:06:00,
2015-09-01 05:22:00,62.6,60.5,29.99,WNW,292,1.0,2.0,93,0.00,,---,0.00,VWS V15.00,2015-09-01 09:22:00,
2015-09-01 05:36:00,62.3,60.2,30.00,WNW,291,1.0,2.0,93,0.00,,---,0.00,VWS V15.00,2015-09-01 09:36:00,
2015-09-01 05:52:00,62.3,60.6,30.00,WNW,291,1.0,2.0,94,0.00,,---,0.00,VWS V15.00,2015-09-01 09:52:00,
2015-09-01 06:06:00,62.0,60.3,30.00,WNW,292,1.0,2.0,94,0.00,,---,0.00,VWS V15.00,2015-09-01 10:06:00,
2015-09-01 06:22:00,62.2,60.5,30.00,WNW,292,1.0,2.0,94,0.00,,---,0.00,VWS V15.00,2015-09-01 10:22:00,
2015-09-01 06:36:00,62.0,60.0,30.01,WNW,292,0.0,2.0,93,0.00,,---,0.00,VWS V15.00,2015-09-01 10:36:00,
2015-09-01 06:52:00,62.7,60.7,30.02,WNW,292,1.0,1.0,93,0.00,,---,0.00,VWS V15.00,2015-09-01 10:52:00,
2015-09-01 07:06:00,63.2,60.8,30.02,WNW,290,1.0,2.0,92,0.00,,---,0.00,VWS V15.00,2015-09-01 11:06:00,
2015-09-01 07:22:00,64.0,61.3,30.02,WNW,290,1.0,1.0,91,0.00,,---,0.00,VWS V15.00,2015-09-01 11:22:00,
2015-09-01 07:36:00,64.3,61.6,30.03,WNW,290,0.0,1.0,91,0.00,,---,0.00,VWS V15.00,2015-09-01 11:36:00,
2015-09-01 08:06:00,66.7,63.7,30.04,WNW,291,0.0,1.0,90,0.00,,---,0.00,VWS V15.00,2015-09-01 12:06:00,
2015-09-01 08:22:00,68.9,63.2,30.04,NE,48,2.0,3.0,82,0.00,,---,0.00,VWS V15.00,2015-09-01 12:22:00,
2015-09-01 08:36:00,69.7,62.5,30.04,NE,53,2.0,5.0,78,0.00,,---,0.00,VWS V15.00,2015-09-01 12:36:00,
2015-09-01 08:52:00,70.1,62.6,30.04,ENE,58,2.0,5.0,77,0.00,,---,0.00,VWS V15.00,2015-09-01 12:52:00,
2015-09-01 09:06:00,70.1,62.6,30.04,NE,51,4.0,5.0,77,0.00,,---,0.00,VWS V15.00,2015-09-01 13:06:00,
2015-09-01 09:22:00,70.9,62.2,30.04,NE,49,3.0,5.0,74,0.00,,---,0.00,VWS V15.00,2015-09-01 13:22:00,
2015-09-01 09:36:00,71.3,60.6,30.05,NE,55,3.0,6.0,69,0.00,,---,0.00,VWS V15.00,2015-09-01 13:36:00,
2015-09-01 09:52:00,71.5,61.2,30.05,NE,47,2.0,7.0,70,0.00,,---,0.00,VWS V15.00,2015-09-01 13:52:00,
2015-09-01 10:06:00,72.1,60.1,30.05,NW,309,1.0,7.0,66,0.00,,---,0.00,VWS V15.00,2015-09-01 14:06:00,
2015-09-01 10:22:00,73.1,59.3,30.04,NE,39,2.0,4.0,62,0.00,,---,0.00,VWS V15.00,2015-09-01 14:22:00,
2015-09-01 10:36:00,73.6,60.2,30.05,NE,51,1.0,4.0,63,0.00,,---,0.00,VWS V15.00,2015-09-01 14:36:00,
2015-09-01 10:52:00,73.7,59.9,30.05,NW,317,1.0,4.0,62,0.00,,---,0.00,VWS V15.00,2015-09-01 14:52:00,
2015-09-01 11:06:00,73.7,60.3,30.05,NE,50,0.0,4.0,63,0.00,,---,0.00,VWS V15.00,2015-09-01 15:06:00,
2015-09-01 11:22:00,73.4,60.0,30.05,NE,46,2.0,5.0,63,0.00,,---,0.00,VWS V15.00,2015-09-01 15:22:00,
2015-09-01 11:36:00,73.4,59.2,30.05,NE,44,1.0,5.0,61,0.00,,---,0.00,VWS V15.00,2015-09-01 15:36:00,
2015-09-01 11:52:00,73.9,59.2,30.04,ENE,57,1.0,2.0,60,0.00,,---,0.00,VWS V15.00,2015-09-01 15:52:00,
2015-09-01 12:06:00,74.0,59.7,30.04,NE,44,1.0,3.0,61,0.00,,---,0.00,VWS V15.00,2015-09-01 16:06:00,
2015-09-01 12:22:00,74.1,60.7,30.04,NE,49,0.0,3.0,63,0.00,,---,0.00,VWS V15.00,2015-09-01 16:22:00,
2015-09-01 12:36:00,74.7,60.8,30.04,NE,53,2.0,3.0,62,0.00,,---,0.00,VWS V15.00,2015-09-01 16:36:00,
2015-09-01 12:52:00,75.1,61.7,30.04,NE,56,0.0,2.0,63,0.00,,---,0.00,VWS V15.00,2015-09-01 16:52:00,
2015-09-01 13:06:00,75.1,61.2,30.03,ESE,107,0.0,4.0,62,0.00,,---,0.00,VWS V15.00,2015-09-01 17:06:00,
2015-09-01 13:23:00,75.2,61.8,30.03,ESE,119,1.0,3.0,63,0.00,,---,0.00,VWS V15.00,2015-09-01 17:23:00,
2015-09-01 13:36:00,75.4,61.5,30.03,ESE,119,1.0,3.0,62,0.00,,---,0.00,VWS V15.00,2015-09-01 17:36:00,
2015-09-01 13:38:00,75.5,62.5,30.03,ESE,119,1.0,1.0,64,0.00,,---,0.00,VWS V15.00,2015-09-01 17:38:00,
2015-09-01 13:53:00,75.7,62.2,30.03,ESE,119,0.0,2.0,63,0.00,,---,0.00,VWS V15.00,2015-09-01 17:53:00,
2015-09-01 14:06:00,75.8,62.3,30.03,ESE,119,1.0,2.0,63,0.00,,---,0.00,VWS V15.00,2015-09-01 18:06:00,
2015-09-01 14:23:00,76.1,63.5,30.02,ESE,119,0.0,1.0,65,0.00,,---,0.00,VWS V15.00,2015-09-01 18:23:00,
2015-09-01 14:36:00,76.2,61.8,30.02,ESE,119,0.0,1.0,61,0.00,,---,0.00,VWS V15.00,2015-09-01 18:36:00,
2015-09-01 14:38:00,76.2,62.7,30.02,ESE,119,0.0,1.0,63,0.00,,---,0.00,VWS V15.00,2015-09-01 18:38:00,
2015-09-01 14:53:00,76.5,63.4,30.02,ESE,119,1.0,2.0,64,0.00,,---,0.00,VWS V15.00,2015-09-01 18:53:00,
2015-09-01 15:06:00,76.7,62.7,30.01,ESE,117,0.0,3.0,62,0.00,,---,0.00,VWS V15.00,2015-09-01 19:06:00,
2015-09-01 15:23:00,76.8,64.6,30.01,SE,146,0.0,2.0,66,0.00,,---,0.00,VWS V15.00,2015-09-01 19:23:00,
2015-09-01 15:36:00,76.8,64.6,30.01,SE,146,0.0,2.0,66,0.00,,---,0.00,VWS V15.00,2015-09-01 19:36:00,
2015-09-01 15:53:00,76.6,64.4,30.00,SE,146,1.0,1.0,66,0.00,,---,0.00,VWS V15.00,2015-09-01 19:53:00,
2015-09-01 16:06:00,76.5,64.3,30.00,SE,146,0.0,1.0,66,0.00,,---,0.00,VWS V15.00,2015-09-01 20:06:00,
2015-09-01 16:23:00,76.7,65.8,29.99,SE,146,0.0,1.0,69,0.00,,---,0.00,VWS V15.00,2015-09-01 20:23:00,